sensor_id;sensor_type;location;lat;lon;timestamp;pressure;altitude;pressure_sealevel;temperature;humidity
51526;BME280;37611;51.794;21.590;2023-04-30T00:01:32;99730.69;;;9.08;74.08
51526;BME280;37611;51.794;21.590;2023-04-30T00:05:34;99730.77;;;9.06;74.60
51526;BME280;37611;51.794;21.590;2023-04-30T00:09:36;99726.55;;;9.04;75.31
51526;BME280;37611;51.794;21.590;2023-04-30T00:13:37;99727.98;;;9.02;75.13
51526;BME280;37611;51.794;21.590;2023-04-30T00:17:39;99726.60;;;9.02;74.51
51526;BME280;37611;51.794;21.590;2023-04-30T00:21:41;99721.88;;;8.98;74.41
51526;BME280;37611;51.794;21.590;2023-04-30T00:25:43;99718.23;;;8.95;75.11
51526;BME280;37611;51.794;21.590;2023-04-30T00:29:45;99724.09;;;8.90;75.25
51526;BME280;37611;51.794;21.590;2023-04-30T00:33:50;99726.96;;;8.84;75.61
51526;BME280;37611;51.794;21.590;2023-04-30T00:37:52;99730.91;;;8.79;76.10
51526;BME280;37611;51.794;21.590;2023-04-30T00:41:53;99730.28;;;8.77;76.42
51526;BME280;37611;51.794;21.590;2023-04-30T00:45:55;99729.52;;;8.74;76.65
51526;BME280;37611;51.794;21.590;2023-04-30T00:49:59;99730.72;;;8.68;76.58
51526;BME280;37611;51.794;21.590;2023-04-30T00:54:01;99735.52;;;8.64;76.95
51526;BME280;37611;51.794;21.590;2023-04-30T00:58:04;99735.85;;;8.57;76.76
51526;BME280;37611;51.794;21.590;2023-04-30T01:02:06;99735.17;;;8.44;77.51
51526;BME280;37611;51.794;21.590;2023-04-30T01:06:08;99725.63;;;8.33;78.19
51526;BME280;37611;51.794;21.590;2023-04-30T01:10:11;99723.52;;;8.26;78.41
51526;BME280;37611;51.794;21.590;2023-04-30T01:19:04;99719.73;;;8.13;78.91
51526;BME280;37611;51.794;21.590;2023-04-30T01:27:45;99714.60;;;7.99;79.55
51526;BME280;37611;51.794;21.590;2023-04-30T01:31:47;99711.08;;;7.88;79.94
51526;BME280;37611;51.794;21.590;2023-04-30T01:35:57;99711.96;;;7.78;80.55
51526;BME280;37611;51.794;21.590;2023-04-30T01:40:26;99708.69;;;7.72;80.64
51526;BME280;37611;51.794;21.590;2023-04-30T01:44:47;99719.52;;;7.70;82.58
51526;BME280;37611;51.794;21.590;2023-04-30T01:48:53;99721.77;;;7.70;82.11
51526;BME280;37611;51.794;21.590;2023-04-30T01:53:01;99719.02;;;7.75;81.66
51526;BME280;37611;51.794;21.590;2023-04-30T01:57:12;99720.71;;;7.78;82.35
51526;BME280;37611;51.794;21.590;2023-04-30T02:01:27;99729.84;;;7.82;82.33
51526;BME280;37611;51.794;21.590;2023-04-30T02:05:29;99738.28;;;7.87;82.34
51526;BME280;37611;51.794;21.590;2023-04-30T02:09:31;99732.54;;;7.93;82.58
51526;BME280;37611;51.794;21.590;2023-04-30T02:13:33;99734.27;;;7.95;82.63
51526;BME280;37611;51.794;21.590;2023-04-30T02:17:35;99733.66;;;7.96;82.96
51526;BME280;37611;51.794;21.590;2023-04-30T02:21:37;99737.05;;;8.03;83.04
51526;BME280;37611;51.794;21.590;2023-04-30T02:25:38;99736.14;;;8.05;83.22
51526;BME280;37611;51.794;21.590;2023-04-30T02:29:40;99737.54;;;8.09;83.20
51526;BME280;37611;51.794;21.590;2023-04-30T02:33:42;99738.40;;;8.13;83.44
51526;BME280;37611;51.794;21.590;2023-04-30T02:37:44;99741.08;;;8.16;83.27
51526;BME280;37611;51.794;21.590;2023-04-30T02:41:45;99740.62;;;8.19;83.83
51526;BME280;37611;51.794;21.590;2023-04-30T02:45:47;99745.84;;;8.14;83.37
51526;BME280;37611;51.794;21.590;2023-04-30T02:49:49;99751.41;;;8.00;83.93
51526;BME280;37611;51.794;21.590;2023-04-30T02:53:51;99749.23;;;7.92;84.20
51526;BME280;37611;51.794;21.590;2023-04-30T02:57:53;99753.33;;;7.89;84.73
51526;BME280;37611;51.794;21.590;2023-04-30T03:01:55;99755.02;;;7.85;84.68
51526;BME280;37611;51.794;21.590;2023-04-30T03:05:56;99761.41;;;7.82;85.41
51526;BME280;37611;51.794;21.590;2023-04-30T03:10:00;99763.47;;;7.83;85.72
51526;BME280;37611;51.794;21.590;2023-04-30T03:14:02;99762.98;;;7.88;86.27
51526;BME280;37611;51.794;21.590;2023-04-30T03:18:05;99765.83;;;7.95;86.37
51526;BME280;37611;51.794;21.590;2023-04-30T03:22:07;99770.55;;;8.01;86.49
51526;BME280;37611;51.794;21.590;2023-04-30T03:26:09;99773.81;;;8.03;86.18
51526;BME280;37611;51.794;21.590;2023-04-30T03:30:10;99773.04;;;8.08;86.84
51526;BME280;37611;51.794;21.590;2023-04-30T03:34:12;99768.40;;;8.11;86.90
51526;BME280;37611;51.794;21.590;2023-04-30T03:38:14;99771.75;;;8.10;86.82
51526;BME280;37611;51.794;21.590;2023-04-30T03:42:16;99774.33;;;8.05;87.06
51526;BME280;37611;51.794;21.590;2023-04-30T03:46:18;99784.06;;;8.09;87.87
51526;BME280;37611;51.794;21.590;2023-04-30T03:50:20;99787.79;;;8.13;88.04
51526;BME280;37611;51.794;21.590;2023-04-30T03:54:22;99793.20;;;8.16;89.12
51526;BME280;37611;51.794;21.590;2023-04-30T03:58:23;99797.66;;;8.24;88.57
51526;BME280;37611;51.794;21.590;2023-04-30T04:02:25;99799.03;;;8.30;88.67
51526;BME280;37611;51.794;21.590;2023-04-30T04:06:28;99803.66;;;8.33;89.21
51526;BME280;37611;51.794;21.590;2023-04-30T04:10:29;99814.35;;;8.34;89.78
51526;BME280;37611;51.794;21.590;2023-04-30T04:14:32;99816.32;;;8.38;90.10
51526;BME280;37611;51.794;21.590;2023-04-30T04:18:33;99824.55;;;8.45;91.17
51526;BME280;37611;51.794;21.590;2023-04-30T04:22:35;99826.40;;;8.53;91.56
51526;BME280;37611;51.794;21.590;2023-04-30T04:26:37;99827.03;;;8.60;92.10
51526;BME280;37611;51.794;21.590;2023-04-30T04:30:39;99833.60;;;8.70;92.41
51526;BME280;37611;51.794;21.590;2023-04-30T04:34:41;99834.67;;;8.78;94.01
51526;BME280;37611;51.794;21.590;2023-04-30T04:38:44;99835.65;;;8.89;94.28
51526;BME280;37611;51.794;21.590;2023-04-30T04:42:48;99837.56;;;8.98;94.23
51526;BME280;37611;51.794;21.590;2023-04-30T04:46:51;99840.09;;;9.10;97.08
51526;BME280;37611;51.794;21.590;2023-04-30T04:50:54;99846.95;;;9.22;98.26
51526;BME280;37611;51.794;21.590;2023-04-30T04:54:56;99847.66;;;9.36;97.13
51526;BME280;37611;51.794;21.590;2023-04-30T04:58:58;99851.96;;;9.50;98.82
51526;BME280;37611;51.794;21.590;2023-04-30T05:02:59;99854.67;;;9.63;99.35
51526;BME280;37611;51.794;21.590;2023-04-30T05:07:01;99861.95;;;9.75;99.87
51526;BME280;37611;51.794;21.590;2023-04-30T05:11:04;99862.16;;;9.87;99.90
51526;BME280;37611;51.794;21.590;2023-04-30T05:15:07;99868.63;;;9.99;100.00
51526;BME280;37611;51.794;21.590;2023-04-30T05:19:09;99872.08;;;10.16;100.00
51526;BME280;37611;51.794;21.590;2023-04-30T05:23:10;99883.23;;;10.34;100.00
51526;BME280;37611;51.794;21.590;2023-04-30T05:27:13;99888.35;;;10.53;100.00
51526;BME280;37611;51.794;21.590;2023-04-30T05:31:18;99892.89;;;10.70;100.00
51526;BME280;37611;51.794;21.590;2023-04-30T05:35:19;99899.62;;;10.80;100.00
51526;BME280;37611;51.794;21.590;2023-04-30T05:39:21;99903.86;;;10.83;100.00
51526;BME280;37611;51.794;21.590;2023-04-30T05:43:23;99916.83;;;10.83;100.00
51526;BME280;37611;51.794;21.590;2023-04-30T05:47:24;99920.02;;;10.83;100.00
51526;BME280;37611;51.794;21.590;2023-04-30T05:51:27;99925.27;;;10.74;100.00
51526;BME280;37611;51.794;21.590;2023-04-30T05:55:29;99931.84;;;10.71;100.00
51526;BME280;37611;51.794;21.590;2023-04-30T05:59:32;99935.99;;;10.67;100.00
51526;BME280;37611;51.794;21.590;2023-04-30T06:03:33;99940.64;;;10.57;100.00
51526;BME280;37611;51.794;21.590;2023-04-30T06:07:35;99949.64;;;10.47;100.00
51526;BME280;37611;51.794;21.590;2023-04-30T06:11:37;99955.15;;;10.34;100.00
51526;BME280;37611;51.794;21.590;2023-04-30T06:15:41;99963.45;;;10.19;100.00
51526;BME280;37611;51.794;21.590;2023-04-30T06:19:43;99966.35;;;10.11;100.00
51526;BME280;37611;51.794;21.590;2023-04-30T06:23:45;99972.36;;;10.07;100.00
51526;BME280;37611;51.794;21.590;2023-04-30T06:27:47;99977.38;;;10.00;100.00
51526;BME280;37611;51.794;21.590;2023-04-30T06:31:49;99979.00;;;10.01;100.00
51526;BME280;37611;51.794;21.590;2023-04-30T06:35:52;99984.66;;;9.97;100.00
51526;BME280;37611;51.794;21.590;2023-04-30T06:39:55;99991.59;;;10.01;100.00
51526;BME280;37611;51.794;21.590;2023-04-30T06:43:57;99999.34;;;10.04;100.00
51526;BME280;37611;51.794;21.590;2023-04-30T06:47:59;100000.49;;;10.12;100.00
51526;BME280;37611;51.794;21.590;2023-04-30T06:52:01;100007.27;;;10.22;100.00
51526;BME280;37611;51.794;21.590;2023-04-30T06:56:04;100015.48;;;10.29;100.00
51526;BME280;37611;51.794;21.590;2023-04-30T07:00:06;100020.46;;;10.32;100.00
51526;BME280;37611;51.794;21.590;2023-04-30T07:04:10;100023.64;;;10.23;100.00
51526;BME280;37611;51.794;21.590;2023-04-30T07:08:12;100027.15;;;10.22;100.00
51526;BME280;37611;51.794;21.590;2023-04-30T07:12:15;100031.85;;;10.25;100.00
51526;BME280;37611;51.794;21.590;2023-04-30T07:16:17;100029.00;;;10.32;100.00
51526;BME280;37611;51.794;21.590;2023-04-30T07:20:19;100031.17;;;10.43;100.00
51526;BME280;37611;51.794;21.590;2023-04-30T07:24:21;100032.70;;;10.53;100.00
51526;BME280;37611;51.794;21.590;2023-04-30T07:28:22;100037.70;;;10.70;100.00
51526;BME280;37611;51.794;21.590;2023-04-30T07:32:24;100042.15;;;10.93;100.00
51526;BME280;37611;51.794;21.590;2023-04-30T07:36:27;100035.77;;;11.21;100.00
51526;BME280;37611;51.794;21.590;2023-04-30T07:40:29;100040.09;;;11.63;100.00
51526;BME280;37611;51.794;21.590;2023-04-30T07:44:31;100044.66;;;12.11;100.00
51526;BME280;37611;51.794;21.590;2023-04-30T07:48:33;100049.96;;;12.48;98.46
51526;BME280;37611;51.794;21.590;2023-04-30T07:52:35;100055.65;;;12.82;97.48
51526;BME280;37611;51.794;21.590;2023-04-30T07:56:36;100056.35;;;13.13;94.89
51526;BME280;37611;51.794;21.590;2023-04-30T08:00:38;100057.61;;;13.53;93.23
51526;BME280;37611;51.794;21.590;2023-04-30T08:04:40;100064.39;;;13.84;89.43
51526;BME280;37611;51.794;21.590;2023-04-30T08:08:42;100068.81;;;14.04;87.54
51526;BME280;37611;51.794;21.590;2023-04-30T08:12:43;100078.34;;;13.96;84.32
51526;BME280;37611;51.794;21.590;2023-04-30T08:16:45;100081.95;;;13.97;84.00
51526;BME280;37611;51.794;21.590;2023-04-30T08:20:47;100087.27;;;14.04;83.16
51526;BME280;37611;51.794;21.590;2023-04-30T08:24:49;100090.31;;;14.18;82.13
51526;BME280;37611;51.794;21.590;2023-04-30T08:28:51;100091.44;;;14.50;81.87
51526;BME280;37611;51.794;21.590;2023-04-30T08:32:53;100088.36;;;14.66;80.32
51526;BME280;37611;51.794;21.590;2023-04-30T08:36:55;100093.80;;;14.63;76.85
51526;BME280;37611;51.794;21.590;2023-04-30T08:41:21;100092.95;;;14.75;76.67
51526;BME280;37611;51.794;21.590;2023-04-30T08:45:27;100092.41;;;15.06;75.10
51526;BME280;37611;51.794;21.590;2023-04-30T08:49:29;100094.70;;;15.30;73.20
51526;BME280;37611;51.794;21.590;2023-04-30T08:53:36;100092.79;;;15.57;72.46
51526;BME280;37611;51.794;21.590;2023-04-30T08:57:41;100091.45;;;15.83;71.63
51526;BME280;37611;51.794;21.590;2023-04-30T09:01:42;100095.21;;;15.96;69.93
51526;BME280;37611;51.794;21.590;2023-04-30T09:05:44;100095.63;;;16.07;69.38
51526;BME280;37611;51.794;21.590;2023-04-30T09:09:46;100099.54;;;16.01;70.99
51526;BME280;37611;51.794;21.590;2023-04-30T09:13:51;100101.86;;;15.90;71.70
51526;BME280;37611;51.794;21.590;2023-04-30T09:18:16;100101.98;;;15.94;71.08
51526;BME280;37611;51.794;21.590;2023-04-30T09:22:20;100100.76;;;15.85;69.70
51526;BME280;37611;51.794;21.590;2023-04-30T09:30:33;100108.08;;;15.88;69.44
51526;BME280;37611;51.794;21.590;2023-04-30T09:34:35;100109.48;;;15.75;67.60
51526;BME280;37611;51.794;21.590;2023-04-30T09:38:37;100113.73;;;15.93;67.28
51526;BME280;37611;51.794;21.590;2023-04-30T09:42:39;100118.56;;;16.19;64.72
51526;BME280;37611;51.794;21.590;2023-04-30T09:46:42;100110.15;;;16.22;63.80
51526;BME280;37611;51.794;21.590;2023-04-30T09:50:44;100112.36;;;16.19;63.41
51526;BME280;37611;51.794;21.590;2023-04-30T09:54:47;100120.68;;;16.22;64.00
51526;BME280;37611;51.794;21.590;2023-04-30T09:58:51;100120.73;;;16.11;63.26
51526;BME280;37611;51.794;21.590;2023-04-30T10:02:54;100128.88;;;15.81;62.68
51526;BME280;37611;51.794;21.590;2023-04-30T10:06:57;100130.77;;;15.45;62.18
51526;BME280;37611;51.794;21.590;2023-04-30T10:11:02;100119.37;;;15.48;64.05
51526;BME280;37611;51.794;21.590;2023-04-30T10:15:10;100117.12;;;15.61;62.55
51526;BME280;37611;51.794;21.590;2023-04-30T10:19:30;100116.81;;;15.40;58.84
51526;BME280;37611;51.794;21.590;2023-04-30T10:23:32;100116.53;;;15.41;60.42
51526;BME280;37611;51.794;21.590;2023-04-30T10:27:35;100111.96;;;15.54;58.39
51526;BME280;37611;51.794;21.590;2023-04-30T10:31:38;100113.50;;;15.63;56.87
51526;BME280;37611;51.794;21.590;2023-04-30T10:35:56;100116.36;;;15.78;56.85
51526;BME280;37611;51.794;21.590;2023-04-30T10:39:59;100110.61;;;15.91;57.10
51526;BME280;37611;51.794;21.590;2023-04-30T10:44:02;100111.75;;;16.12;56.57
51526;BME280;37611;51.794;21.590;2023-04-30T10:48:05;100116.89;;;16.19;52.39
51526;BME280;37611;51.794;21.590;2023-04-30T10:52:10;100113.13;;;16.01;48.00
51526;BME280;37611;51.794;21.590;2023-04-30T10:56:11;100116.98;;;16.06;49.60
51526;BME280;37611;51.794;21.590;2023-04-30T11:00:17;100122.25;;;16.07;47.29
51526;BME280;37611;51.794;21.590;2023-04-30T11:04:19;100119.52;;;15.95;47.04
51526;BME280;37611;51.794;21.590;2023-04-30T11:08:35;100117.46;;;15.87;45.19
51526;BME280;37611;51.794;21.590;2023-04-30T11:12:39;100121.15;;;15.97;46.55
51526;BME280;37611;51.794;21.590;2023-04-30T11:16:41;100125.88;;;16.08;44.50
51526;BME280;37611;51.794;21.590;2023-04-30T11:20:50;100130.30;;;16.05;43.05
51526;BME280;37611;51.794;21.590;2023-04-30T11:28:59;100134.18;;;16.01;40.08
51526;BME280;37611;51.794;21.590;2023-04-30T11:33:01;100130.84;;;16.03;40.61
51526;BME280;37611;51.794;21.590;2023-04-30T11:37:04;100132.58;;;15.99;38.02
51526;BME280;37611;51.794;21.590;2023-04-30T11:41:11;100136.52;;;15.97;37.11
51526;BME280;37611;51.794;21.590;2023-04-30T11:45:15;100133.35;;;15.90;35.81
51526;BME280;37611;51.794;21.590;2023-04-30T11:49:19;100134.23;;;15.89;35.08
51526;BME280;37611;51.794;21.590;2023-04-30T11:53:27;100144.09;;;15.83;33.32
51526;BME280;37611;51.794;21.590;2023-04-30T11:57:39;100145.38;;;15.84;34.67
51526;BME280;37611;51.794;21.590;2023-04-30T12:01:41;100145.60;;;15.82;34.51
51526;BME280;37611;51.794;21.590;2023-04-30T12:05:45;100140.85;;;15.82;33.05
51526;BME280;37611;51.794;21.590;2023-04-30T12:09:52;100139.80;;;15.87;34.20
51526;BME280;37611;51.794;21.590;2023-04-30T12:14:02;100142.22;;;15.94;33.20
51526;BME280;37611;51.794;21.590;2023-04-30T12:18:12;100146.02;;;15.96;33.59
51526;BME280;37611;51.794;21.590;2023-04-30T12:22:14;100145.21;;;16.00;34.76
51526;BME280;37611;51.794;21.590;2023-04-30T12:26:16;100140.94;;;15.93;33.67
51526;BME280;37611;51.794;21.590;2023-04-30T12:30:23;100134.66;;;15.87;35.02
51526;BME280;37611;51.794;21.590;2023-04-30T12:34:27;100135.73;;;15.90;35.48
51526;BME280;37611;51.794;21.590;2023-04-30T12:38:30;100133.05;;;16.04;36.43
51526;BME280;37611;51.794;21.590;2023-04-30T12:42:32;100129.70;;;16.07;35.62
51526;BME280;37611;51.794;21.590;2023-04-30T12:46:37;100125.34;;;16.06;35.94
51526;BME280;37611;51.794;21.590;2023-04-30T12:50:40;100130.46;;;16.15;35.89
51526;BME280;37611;51.794;21.590;2023-04-30T12:54:42;100124.61;;;16.11;34.93
51526;BME280;37611;51.794;21.590;2023-04-30T12:58:46;100123.11;;;16.02;35.14
51526;BME280;37611;51.794;21.590;2023-04-30T13:02:48;100123.39;;;15.93;34.73
51526;BME280;37611;51.794;21.590;2023-04-30T13:06:50;100123.23;;;15.92;35.90
51526;BME280;37611;51.794;21.590;2023-04-30T13:10:52;100128.45;;;15.96;35.71
51526;BME280;37611;51.794;21.590;2023-04-30T13:14:54;100126.43;;;15.96;35.76
51526;BME280;37611;51.794;21.590;2023-04-30T13:18:56;100131.67;;;15.89;35.05
51526;BME280;37611;51.794;21.590;2023-04-30T13:22:57;100129.05;;;15.79;35.27
51526;BME280;37611;51.794;21.590;2023-04-30T13:26:59;100127.76;;;15.83;35.94
51526;BME280;37611;51.794;21.590;2023-04-30T13:31:01;100124.52;;;15.88;35.92
51526;BME280;37611;51.794;21.590;2023-04-30T13:35:03;100127.17;;;15.88;36.07
51526;BME280;37611;51.794;21.590;2023-04-30T13:39:05;100127.61;;;15.84;34.87
51526;BME280;37611;51.794;21.590;2023-04-30T13:43:07;100127.71;;;15.82;35.18
51526;BME280;37611;51.794;21.590;2023-04-30T13:47:08;100126.10;;;15.84;35.50
51526;BME280;37611;51.794;21.590;2023-04-30T13:51:11;100136.91;;;15.79;35.08
51526;BME280;37611;51.794;21.590;2023-04-30T13:55:13;100137.29;;;15.73;35.67
51526;BME280;37611;51.794;21.590;2023-04-30T13:59:15;100134.35;;;15.74;36.09
51526;BME280;37611;51.794;21.590;2023-04-30T14:03:19;100131.18;;;15.66;35.28
51526;BME280;37611;51.794;21.590;2023-04-30T14:07:22;100136.30;;;15.59;35.26
51526;BME280;37611;51.794;21.590;2023-04-30T14:11:25;100139.42;;;15.52;35.02
51526;BME280;37611;51.794;21.590;2023-04-30T14:15:28;100137.80;;;15.55;35.55
51526;BME280;37611;51.794;21.590;2023-04-30T14:19:32;100137.42;;;15.54;35.54
51526;BME280;37611;51.794;21.590;2023-04-30T14:23:34;100143.20;;;15.48;35.40
51526;BME280;37611;51.794;21.590;2023-04-30T14:27:36;100143.36;;;15.45;35.08
51526;BME280;37611;51.794;21.590;2023-04-30T14:31:37;100140.57;;;15.39;35.19
51526;BME280;37611;51.794;21.590;2023-04-30T14:35:39;100140.46;;;15.32;35.42
51526;BME280;37611;51.794;21.590;2023-04-30T14:39:42;100139.52;;;15.30;35.79
51526;BME280;37611;51.794;21.590;2023-04-30T14:43:44;100141.22;;;15.26;36.17
51526;BME280;37611;51.794;21.590;2023-04-30T14:47:46;100146.93;;;15.19;36.35
51526;BME280;37611;51.794;21.590;2023-04-30T14:51:47;100152.40;;;15.18;36.37
51526;BME280;37611;51.794;21.590;2023-04-30T14:55:49;100149.98;;;15.14;36.45
51526;BME280;37611;51.794;21.590;2023-04-30T14:59:51;100150.41;;;15.06;36.12
51526;BME280;37611;51.794;21.590;2023-04-30T15:03:55;100155.27;;;15.00;36.07
51526;BME280;37611;51.794;21.590;2023-04-30T15:07:57;100155.08;;;14.93;36.78
51526;BME280;37611;51.794;21.590;2023-04-30T15:11:58;100157.38;;;14.85;36.19
51526;BME280;37611;51.794;21.590;2023-04-30T15:16:00;100152.77;;;14.76;36.30
51526;BME280;37611;51.794;21.590;2023-04-30T15:20:05;100156.75;;;14.71;36.74
51526;BME280;37611;51.794;21.590;2023-04-30T15:24:08;100159.55;;;14.65;36.35
51526;BME280;37611;51.794;21.590;2023-04-30T15:28:09;100154.52;;;14.63;36.84
51526;BME280;37611;51.794;21.590;2023-04-30T15:32:11;100160.54;;;14.55;36.41
51526;BME280;37611;51.794;21.590;2023-04-30T15:36:14;100159.73;;;14.48;36.49
51526;BME280;37611;51.794;21.590;2023-04-30T15:40:16;100158.48;;;14.40;36.49
51526;BME280;37611;51.794;21.590;2023-04-30T15:44:17;100159.24;;;14.34;36.91
51526;BME280;37611;51.794;21.590;2023-04-30T15:48:19;100172.29;;;14.32;37.23
51526;BME280;37611;51.794;21.590;2023-04-30T15:52:21;100178.23;;;14.26;37.42
51526;BME280;37611;51.794;21.590;2023-04-30T15:56:22;100175.76;;;14.24;37.81
51526;BME280;37611;51.794;21.590;2023-04-30T16:00:26;100175.87;;;14.20;37.63
51526;BME280;37611;51.794;21.590;2023-04-30T16:04:29;100178.85;;;14.17;37.66
51526;BME280;37611;51.794;21.590;2023-04-30T16:08:31;100180.45;;;14.06;36.25
51526;BME280;37611;51.794;21.590;2023-04-30T16:12:36;100182.41;;;13.99;37.10
51526;BME280;37611;51.794;21.590;2023-04-30T16:16:37;100183.66;;;13.91;37.29
51526;BME280;37611;51.794;21.590;2023-04-30T16:20:40;100186.05;;;13.84;37.50
51526;BME280;37611;51.794;21.590;2023-04-30T16:24:42;100186.91;;;13.81;37.81
51526;BME280;37611;51.794;21.590;2023-04-30T16:28:44;100190.95;;;13.71;37.75
51526;BME280;37611;51.794;21.590;2023-04-30T16:32:47;100199.30;;;13.65;38.36
51526;BME280;37611;51.794;21.590;2023-04-30T16:36:49;100201.54;;;13.59;38.59
51526;BME280;37611;51.794;21.590;2023-04-30T16:40:51;100197.48;;;13.53;38.71
51526;BME280;37611;51.794;21.590;2023-04-30T16:44:52;100197.29;;;13.45;39.16
51526;BME280;37611;51.794;21.590;2023-04-30T16:48:55;100203.56;;;13.39;39.57
51526;BME280;37611;51.794;21.590;2023-04-30T16:52:57;100200.95;;;13.31;38.52
51526;BME280;37611;51.794;21.590;2023-04-30T16:56:58;100203.73;;;13.22;37.52
51526;BME280;37611;51.794;21.590;2023-04-30T17:01:00;100208.27;;;13.11;36.66
51526;BME280;37611;51.794;21.590;2023-04-30T17:05:02;100210.60;;;13.03;36.85
51526;BME280;37611;51.794;21.590;2023-04-30T17:09:04;100211.34;;;12.94;37.14
51526;BME280;37611;51.794;21.590;2023-04-30T17:13:08;100215.89;;;12.84;36.98
51526;BME280;37611;51.794;21.590;2023-04-30T17:17:09;100221.19;;;12.72;37.09
51526;BME280;37611;51.794;21.590;2023-04-30T17:21:11;100226.48;;;12.62;37.77
51526;BME280;37611;51.794;21.590;2023-04-30T17:25:13;100227.22;;;12.50;37.66
51526;BME280;37611;51.794;21.590;2023-04-30T17:29:15;100232.56;;;12.37;38.11
51526;BME280;37611;51.794;21.590;2023-04-30T17:33:17;100240.26;;;12.27;38.89
51526;BME280;37611;51.794;21.590;2023-04-30T17:37:18;100240.85;;;12.16;39.26
51526;BME280;37611;51.794;21.590;2023-04-30T17:41:20;100243.59;;;12.05;39.71
51526;BME280;37611;51.794;21.590;2023-04-30T17:45:22;100246.96;;;11.91;40.12
51526;BME280;37611;51.794;21.590;2023-04-30T17:49:24;100249.41;;;11.78;40.51
51526;BME280;37611;51.794;21.590;2023-04-30T17:53:26;100255.49;;;11.66;40.89
51526;BME280;37611;51.794;21.590;2023-04-30T17:57:28;100261.44;;;11.51;41.45
51526;BME280;37611;51.794;21.590;2023-04-30T18:01:30;100260.52;;;11.30;42.23
51526;BME280;37611;51.794;21.590;2023-04-30T18:05:32;100265.16;;;11.07;43.20
51526;BME280;37611;51.794;21.590;2023-04-30T18:09:34;100271.02;;;10.87;43.96
51526;BME280;37611;51.794;21.590;2023-04-30T18:13:36;100277.84;;;10.69;44.36
51526;BME280;37611;51.794;21.590;2023-04-30T18:17:38;100279.00;;;10.51;45.04
51526;BME280;37611;51.794;21.590;2023-04-30T18:21:40;100285.09;;;10.34;45.35
51526;BME280;37611;51.794;21.590;2023-04-30T18:25:42;100287.91;;;10.13;46.24
51526;BME280;37611;51.794;21.590;2023-04-30T18:29:44;100290.94;;;9.96;47.14
51526;BME280;37611;51.794;21.590;2023-04-30T18:33:47;100300.13;;;9.77;48.20
51526;BME280;37611;51.794;21.590;2023-04-30T18:37:48;100300.08;;;9.62;48.75
51526;BME280;37611;51.794;21.590;2023-04-30T18:41:50;100304.50;;;9.50;49.35
51526;BME280;37611;51.794;21.590;2023-04-30T18:45:52;100307.19;;;9.38;49.85
51526;BME280;37611;51.794;21.590;2023-04-30T18:49:54;100307.02;;;9.24;50.53
51526;BME280;37611;51.794;21.590;2023-04-30T18:53:57;100308.76;;;9.10;51.13
51526;BME280;37611;51.794;21.590;2023-04-30T18:57:59;100315.86;;;8.95;50.48
51526;BME280;37611;51.794;21.590;2023-04-30T19:02:00;100318.27;;;8.79;51.31
51526;BME280;37611;51.794;21.590;2023-04-30T19:06:02;100318.66;;;8.67;52.30
51526;BME280;37611;51.794;21.590;2023-04-30T19:10:04;100326.32;;;8.54;52.28
51526;BME280;37611;51.794;21.590;2023-04-30T19:14:06;100331.75;;;8.42;52.85
51526;BME280;37611;51.794;21.590;2023-04-30T19:18:11;100337.77;;;8.33;53.06
51526;BME280;37611;51.794;21.590;2023-04-30T19:22:14;100344.77;;;8.22;53.40
51526;BME280;37611;51.794;21.590;2023-04-30T19:26:15;100343.02;;;8.09;54.61
51526;BME280;37611;51.794;21.590;2023-04-30T19:30:17;100347.92;;;7.95;54.65
51526;BME280;37611;51.794;21.590;2023-04-30T19:34:19;100350.27;;;7.79;54.75
51526;BME280;37611;51.794;21.590;2023-04-30T19:38:21;100351.10;;;7.62;55.97
51526;BME280;37611;51.794;21.590;2023-04-30T19:42:23;100352.34;;;7.49;55.97
51526;BME280;37611;51.794;21.590;2023-04-30T19:46:24;100350.14;;;7.38;56.18
51526;BME280;37611;51.794;21.590;2023-04-30T19:50:27;100351.74;;;7.28;56.94
51526;BME280;37611;51.794;21.590;2023-04-30T19:54:29;100354.16;;;7.20;58.46
51526;BME280;37611;51.794;21.590;2023-04-30T19:58:30;100359.07;;;7.10;58.46
51526;BME280;37611;51.794;21.590;2023-04-30T20:02:32;100362.12;;;7.00;58.75
51526;BME280;37611;51.794;21.590;2023-04-30T20:06:34;100361.70;;;6.92;58.94
51526;BME280;37611;51.794;21.590;2023-04-30T20:10:37;100362.35;;;6.84;59.37
51526;BME280;37611;51.794;21.590;2023-04-30T20:14:38;100363.89;;;6.78;59.74
51526;BME280;37611;51.794;21.590;2023-04-30T20:18:40;100369.73;;;6.72;59.94
51526;BME280;37611;51.794;21.590;2023-04-30T20:22:43;100372.80;;;6.61;60.71
51526;BME280;37611;51.794;21.590;2023-04-30T20:26:44;100376.38;;;6.51;62.04
51526;BME280;37611;51.794;21.590;2023-04-30T20:30:46;100380.63;;;6.41;61.68
51526;BME280;37611;51.794;21.590;2023-04-30T20:34:49;100385.44;;;6.37;61.47
51526;BME280;37611;51.794;21.590;2023-04-30T20:38:52;100388.98;;;6.36;62.03
51526;BME280;37611;51.794;21.590;2023-04-30T20:42:56;100397.34;;;6.34;61.85
51526;BME280;37611;51.794;21.590;2023-04-30T20:46:57;100394.23;;;6.29;62.90
51526;BME280;37611;51.794;21.590;2023-04-30T20:50:59;100391.67;;;6.24;63.35
51526;BME280;37611;51.794;21.590;2023-04-30T20:55:01;100394.34;;;6.20;63.52
51526;BME280;37611;51.794;21.590;2023-04-30T20:59:03;100395.37;;;6.16;63.54
51526;BME280;37611;51.794;21.590;2023-04-30T21:03:06;100397.72;;;6.10;62.33
51526;BME280;37611;51.794;21.590;2023-04-30T21:07:08;100400.30;;;6.03;62.07
51526;BME280;37611;51.794;21.590;2023-04-30T21:11:10;100404.08;;;5.97;63.06
51526;BME280;37611;51.794;21.590;2023-04-30T21:15:14;100405.42;;;5.87;63.51
51526;BME280;37611;51.794;21.590;2023-04-30T21:19:16;100405.56;;;5.76;63.05